Cridersville, Ohio
Current Conditions -  °F | °C
As of 10:53 AM on Friday 21 Nov 2014 (Local Time) from KAOH Reporting Station
Clear Clear  
Wind Chill: 22°   Ceiling: Unl
Heat Index: 22°   Visibility: 10mi
Dew Point: 12°   Wind: 0mph
Humidity: 66%   Direction: NA
Pressure: 30.49"   Gusts: NA
Location:  40.6673°N, 84.1324°W
Report Text: KAOH 211553Z AUTO 00000KT 10SM CLR M06/M11 A3049 RMK AO2 SLP340 T10561111
Loading
Personal Weather Stations






























Interactive Weather Map New forecast layout! Learn more

10-Day Weather Forecast

Advertisements
Track Severe Weather on mobile